Time;durP1;ratioP1;P1;durP2;ratioP2;P2;SDS_P1;SDS_P2;PMS_P1;PMS_P2;Temp;Humidity;BMP_temperature;BMP_pressure;BME280_temperature;BME280_humidity;BME280_pressure;Samples;Min_cycle;Max_cycle;Signal;HPM_P1;HPM_P2
2022/07/21 00:00:29;;;;;;;;;;;23.00;1.00;;;;;;5039620;28;20284;-84
2022/07/21 00:02:55;;;;;;;;;;;22.90;1.00;;;;;;5040460;28;19905;-86
2022/07/21 00:05:21;;;;;;;;;;;23.00;1.00;;;;;;5042148;28;19945;-88
2022/07/21 00:07:47;;;;;;;;;;;23.10;1.00;;;;;;5041445;28;19956;-87
2022/07/21 00:10:13;;;;;;;;;;;23.00;1.00;;;;;;5043207;28;19916;-87
2022/07/21 00:12:39;;;;;;;;;;;23.00;1.00;;;;;;5039572;28;20536;-86
2022/07/21 00:15:06;;;;;;;;;;;23.00;1.00;;;;;;5043032;28;19909;-86
2022/07/21 00:17:33;;;;;;;;;;;23.00;1.00;;;;;;5044728;28;19905;-85
2022/07/21 00:19:59;;;;;;;;;;;22.90;1.00;;;;;;5040107;28;19909;-85
2022/07/21 00:22:24;;;;;;;;;;;22.90;1.00;;;;;;5042524;28;19905;-86
2022/07/21 00:24:50;;;;;;;;;;;22.80;1.00;;;;;;5041232;28;20371;-85
2022/07/21 00:27:15;;;;;;;;;;;22.80;1.00;;;;;;5038438;28;20313;-88
2022/07/21 00:29:45;;;;;;;;;;;22.70;1.00;;;;;;5041704;28;19918;-85
2022/07/21 00:32:11;;;;;;;;;;;22.60;1.00;;;;;;5040075;28;19924;-85
2022/07/21 00:34:36;;;;;;;;;;;22.60;1.00;;;;;;5040441;28;19917;-88
2022/07/21 00:37:01;;;;;;;;;;;22.50;1.00;;;;;;5042519;28;19998;-84
2022/07/21 00:39:27;;;;;;;;;;;22.60;1.00;;;;;;5039653;28;19940;-86
2022/07/21 00:41:52;;;;;;;;;;;22.40;28.10;;;;;;5040034;28;19908;-85
2022/07/21 00:44:22;;;;;;;;;;;22.50;99.90;;;;;;5041073;28;19999;-84
2022/07/21 00:46:48;;;;;;;;;;;22.40;99.00;;;;;;5041391;28;19917;-85
2022/07/21 00:49:13;;;;;;;;;;;22.30;99.90;;;;;;5041338;28;20378;-86
2022/07/21 00:51:39;;;;;;;;;;;22.40;99.90;;;;;;5039579;28;19909;-85
2022/07/21 00:54:04;;;;;;;;;;;22.40;99.90;;;;;;5039473;28;19913;-84
2022/07/21 00:56:30;;;;;;;;;;;22.40;99.90;;;;;;5037533;28;19909;-85
2022/07/21 00:58:55;;;;;;;;;;;22.40;99.90;;;;;;5040509;28;19905;-85
2022/07/21 01:01:21;;;;;;;;;;;22.50;99.90;;;;;;5040168;28;19905;-85
2022/07/21 01:03:46;;;;;;;;;;;22.50;99.90;;;;;;5042418;28;20355;-85
2022/07/21 01:06:12;;;;;;;;;;;22.50;99.90;;;;;;5041499;28;19909;-85
2022/07/21 01:08:38;;;;;;;;;;;22.50;99.90;;;;;;5042459;28;19909;-87
2022/07/21 01:11:04;;;;;;;;;;;22.50;1.00;;;;;;5039281;28;19991;-87
2022/07/21 01:13:30;;;;;;;;;;;22.50;1.00;;;;;;5041810;28;19915;-85
2022/07/21 01:15:55;;;;;;;;;;;22.40;1.00;;;;;;5041062;28;19909;-85
2022/07/21 01:18:21;;;;;;;;;;;22.50;10.10;;;;;;5042223;28;19911;-88
2022/07/21 01:20:51;;;;;;;;;;;22.40;99.90;;;;;;5041702;28;19905;-85
2022/07/21 01:23:16;;;;;;;;;;;22.40;99.90;;;;;;5046241;28;20382;-86
2022/07/21 01:25:46;;;;;;;;;;;22.30;1.00;;;;;;5041823;28;19982;-86
2022/07/21 01:28:12;;;;;;;;;;;22.30;1.00;;;;;;5040780;28;19909;-87
2022/07/21 01:30:37;;;;;;;;;;;22.20;12.10;;;;;;5040345;28;20394;-85
2022/07/21 01:33:03;;;;;;;;;;;22.10;99.90;;;;;;5040791;28;19908;-85
2022/07/21 01:35:28;;;;;;;;;;;22.10;1.00;;;;;;5040362;28;20038;-85
2022/07/21 01:37:54;;;;;;;;;;;22.00;1.00;;;;;;5042839;28;19908;-85
2022/07/21 01:43:04;;;;;;;;;;;22.00;99.90;;;;;;5040247;28;19931;-88
2022/07/21 01:45:29;;;;;;;;;;;21.90;1.00;;;;;;5042313;28;20370;-85
2022/07/21 01:47:55;;;;;;;;;;;21.90;99.90;;;;;;5038914;28;19958;-87
2022/07/21 01:50:26;;;;;;;;;;;21.80;99.90;;;;;;5041135;28;19919;-85
2022/07/21 01:53:00;;;;;;;;;;;21.90;1.00;;;;;;5040357;28;19940;-86
2022/07/21 01:55:28;;;;;;;;;;;22.00;1.00;;;;;;5042480;28;20015;-85
2022/07/21 01:57:53;;;;;;;;;;;21.90;1.00;;;;;;5041084;28;20475;-86
2022/07/21 02:00:19;;;;;;;;;;;22.00;99.90;;;;;;5043421;28;19909;-85
2022/07/21 02:02:45;;;;;;;;;;;22.10;1.00;;;;;;5044981;28;20437;-85
2022/07/21 02:05:10;;;;;;;;;;;22.20;99.90;;;;;;5046480;28;20367;-86
2022/07/21 02:07:35;;;;;;;;;;;22.20;1.00;;;;;;5042678;28;19905;-86
2022/07/21 02:10:01;;;;;;;;;;;22.10;1.00;;;;;;5039166;28;20410;-84
2022/07/21 02:12:26;;;;;;;;;;;22.10;99.90;;;;;;5039725;28;19905;-85
2022/07/21 02:14:52;;;;;;;;;;;22.10;1.00;;;;;;5042870;28;19909;-85
2022/07/21 02:17:18;;;;;;;;;;;22.10;99.90;;;;;;5042215;28;19921;-85
2022/07/21 02:19:43;;;;;;;;;;;22.20;1.00;;;;;;5041158;28;19909;-85
2022/07/21 02:22:09;;;;;;;;;;;22.20;40.60;;;;;;5039155;28;19943;-87
2022/07/21 02:24:34;;;;;;;;;;;22.20;1.00;;;;;;5043216;28;19912;-87
2022/07/21 02:27:00;;;;;;;;;;;22.20;55.20;;;;;;5038319;28;19932;-85
2022/07/21 02:29:26;;;;;;;;;;;22.20;1.00;;;;;;5038493;28;19908;-85
2022/07/21 02:31:51;;;;;;;;;;;22.20;42.80;;;;;;5038442;28;20816;-85
2022/07/21 02:34:17;;;;;;;;;;;22.10;7.70;;;;;;5036821;28;19913;-85
2022/07/21 02:36:42;;;;;;;;;;;22.10;99.90;;;;;;5041443;28;19905;-85
2022/07/21 02:39:08;;;;;;;;;;;22.30;1.00;;;;;;5039385;28;19913;-85
2022/07/21 02:41:33;;;;;;;;;;;22.10;99.90;;;;;;5040652;28;19908;-85
2022/07/21 02:43:59;;;;;;;;;;;22.20;99.90;;;;;;5035989;28;20000;-88
2022/07/21 02:46:24;;;;;;;;;;;22.20;1.00;;;;;;5040348;28;19966;-85
2022/07/21 02:48:50;;;;;;;;;;;22.10;99.90;;;;;;5041530;28;19916;-88
2022/07/21 02:51:15;;;;;;;;;;;22.00;99.90;;;;;;5037812;28;19944;-85
2022/07/21 02:53:43;;;;;;;;;;;22.10;1.00;;;;;;5039811;28;20004;-85
2022/07/21 02:56:08;;;;;;;;;;;22.10;1.00;;;;;;5047710;28;19909;-85
2022/07/21 02:58:34;;;;;;;;;;;22.00;1.00;;;;;;5037777;28;19905;-87
2022/07/21 03:01:00;;;;;;;;;;;22.00;1.00;;;;;;5040155;28;19991;-84
2022/07/21 03:03:27;;;;;;;;;;;22.10;99.90;;;;;;5037799;28;19908;-85
2022/07/21 03:05:52;;;;;;;;;;;22.00;99.90;;;;;;5039064;28;19909;-87
2022/07/21 03:08:18;;;;;;;;;;;21.90;79.70;;;;;;5037510;28;20321;-85
2022/07/21 03:10:44;;;;;;;;;;;21.90;99.90;;;;;;5039614;28;20434;-85
2022/07/21 03:13:10;;;;;;;;;;;21.80;1.00;;;;;;5039692;28;20057;-85
2022/07/21 03:15:35;;;;;;;;;;;21.80;99.90;;;;;;5039583;28;20401;-85
2022/07/21 03:18:01;;;;;;;;;;;21.90;1.00;;;;;;5037349;28;19932;-87
2022/07/21 03:20:28;;;;;;;;;;;21.80;1.00;;;;;;5038403;28;19905;-85
2022/07/21 03:22:54;;;;;;;;;;;21.80;1.00;;;;;;5039023;28;19909;-84
2022/07/21 03:25:20;;;;;;;;;;;21.90;99.90;;;;;;5037757;28;19926;-85
2022/07/21 03:27:46;;;;;;;;;;;21.90;99.90;;;;;;5037170;28;19909;-85
2022/07/21 03:30:12;;;;;;;;;;;22.00;1.00;;;;;;5036721;28;19912;-85
2022/07/21 03:32:38;;;;;;;;;;;21.90;1.00;;;;;;5046588;28;19988;-85
2022/07/21 03:35:04;;;;;;;;;;;21.90;91.80;;;;;;5039903;28;19996;-85
2022/07/21 03:37:30;;;;;;;;;;;21.90;99.90;;;;;;5036807;28;20270;-85
2022/07/21 03:39:56;;;;;;;;;;;21.80;99.90;;;;;;5038437;28;19996;-85
2022/07/21 03:42:21;;;;;;;;;;;21.80;69.40;;;;;;5038413;28;20330;-85
2022/07/21 03:44:47;;;;;;;;;;;21.70;99.90;;;;;;5038776;28;20256;-85
2022/07/21 03:47:12;;;;;;;;;;;21.70;99.90;;;;;;5038141;28;20027;-85
2022/07/21 03:49:38;;;;;;;;;;;21.80;99.90;;;;;;5038129;28;20814;-88
2022/07/21 03:52:03;;;;;;;;;;;21.80;99.90;;;;;;5037736;28;19963;-85
2022/07/21 03:54:29;;;;;;;;;;;21.80;99.90;;;;;;5037804;28;20430;-85
2022/07/21 03:56:54;;;;;;;;;;;21.80;99.90;;;;;;5037378;28;19905;-85
2022/07/21 03:59:20;;;;;;;;;;;21.80;99.90;;;;;;5040123;28;19995;-85
2022/07/21 04:01:45;;;;;;;;;;;21.80;99.90;;;;;;5035687;28;20295;-85
2022/07/21 04:04:11;;;;;;;;;;;21.70;99.90;;;;;;5037898;28;19916;-86
2022/07/21 04:06:36;;;;;;;;;;;21.70;1.00;;;;;;5036565;28;19909;-86
2022/07/21 04:09:02;;;;;;;;;;;21.80;1.00;;;;;;5036235;28;19905;-86
2022/07/21 04:11:30;;;;;;;;;;;21.70;1.00;;;;;;5035404;28;19963;-87
2022/07/21 04:13:55;;;;;;;;;;;21.70;1.00;;;;;;5035314;28;20286;-85
2022/07/21 04:16:21;;;;;;;;;;;21.70;1.00;;;;;;5035910;28;19908;-88
2022/07/21 04:18:46;;;;;;;;;;;21.60;1.00;;;;;;5036787;28;19947;-85
2022/07/21 04:21:12;;;;;;;;;;;21.60;1.00;;;;;;5046596;28;19909;-85
2022/07/21 04:23:37;;;;;;;;;;;21.60;1.00;;;;;;5043586;28;19928;-88
2022/07/21 04:26:03;;;;;;;;;;;21.40;1.00;;;;;;5031541;28;20283;-86
2022/07/21 04:28:28;;;;;;;;;;;21.30;1.00;;;;;;5031566;28;19938;-87
2022/07/21 04:30:54;;;;;;;;;;;21.30;32.90;;;;;;5034616;28;19914;-88
2022/07/21 04:33:19;;;;;;;;;;;21.20;43.80;;;;;;5035305;28;19905;-87
2022/07/21 04:35:45;;;;;;;;;;;21.20;96.30;;;;;;5034965;28;19940;-87
2022/07/21 04:38:10;;;;;;;;;;;21.20;99.90;;;;;;5035331;28;19962;-87
2022/07/21 04:40:36;;;;;;;;;;;21.10;91.30;;;;;;5035973;28;19909;-87
2022/07/21 04:43:02;;;;;;;;;;;21.10;99.90;;;;;;5046511;28;19994;-86
2022/07/21 04:45:27;;;;;;;;;;;21.10;99.90;;;;;;5045481;28;19962;-84
2022/07/21 04:47:54;;;;;;;;;;;21.00;99.90;;;;;;5039127;28;19999;-84
2022/07/21 04:50:21;;;;;;;;;;;21.00;99.90;;;;;;5037134;28;19909;-85
2022/07/21 04:52:46;;;;;;;;;;;21.00;99.90;;;;;;5045632;28;19908;-85
2022/07/21 04:55:12;;;;;;;;;;;20.90;99.90;;;;;;5033726;28;19920;-85
2022/07/21 04:57:38;;;;;;;;;;;20.80;99.90;;;;;;5044917;28;20282;-85
2022/07/21 05:00:05;;;;;;;;;;;20.80;99.90;;;;;;5037126;28;19909;-84
2022/07/21 05:02:30;;;;;;;;;;;20.80;99.90;;;;;;5037613;28;19908;-85
2022/07/21 05:04:56;;;;;;;;;;;20.80;99.90;;;;;;5036637;28;19924;-84
2022/07/21 05:07:21;;;;;;;;;;;20.70;99.90;;;;;;5037266;28;20296;-84
2022/07/21 05:09:47;;;;;;;;;;;20.80;99.90;;;;;;5037966;28;19909;-84
2022/07/21 05:12:12;;;;;;;;;;;20.60;99.90;;;;;;5038265;28;19905;-85
2022/07/21 05:14:38;;;;;;;;;;;20.60;99.90;;;;;;5037347;28;20389;-85
2022/07/21 05:17:03;;;;;;;;;;;20.60;99.90;;;;;;5038700;28;19905;-85
2022/07/21 05:19:29;;;;;;;;;;;20.60;99.90;;;;;;5035946;28;19934;-85
2022/07/21 05:21:55;;;;;;;;;;;20.60;99.90;;;;;;5037297;28;19905;-85
2022/07/21 05:24:20;;;;;;;;;;;20.60;99.90;;;;;;5036700;28;20325;-84
2022/07/21 05:26:46;;;;;;;;;;;20.60;99.90;;;;;;5037401;28;19909;-84
2022/07/21 05:29:11;;;;;;;;;;;20.60;99.90;;;;;;5036993;28;19912;-85
2022/07/21 05:31:37;;;;;;;;;;;20.70;99.90;;;;;;5036995;28;20286;-85
2022/07/21 05:34:02;;;;;;;;;;;20.50;99.90;;;;;;5037432;28;19923;-85
2022/07/21 05:36:28;;;;;;;;;;;20.60;99.90;;;;;;5036849;28;19920;-85
2022/07/21 05:38:53;;;;;;;;;;;20.70;99.90;;;;;;5036628;28;20050;-84
2022/07/21 05:41:19;;;;;;;;;;;20.80;99.90;;;;;;5036946;28;20281;-85
2022/07/21 05:43:44;;;;;;;;;;;20.80;99.90;;;;;;5038563;28;20818;-85
2022/07/21 05:46:10;;;;;;;;;;;20.90;99.90;;;;;;5035645;28;19913;-84
2022/07/21 05:48:35;;;;;;;;;;;20.90;99.90;;;;;;5036350;28;19909;-84
2022/07/21 05:51:01;;;;;;;;;;;20.80;99.90;;;;;;5036267;28;19915;-84
2022/07/21 05:53:26;;;;;;;;;;;20.90;99.90;;;;;;5038186;28;20351;-85
2022/07/21 05:55:52;;;;;;;;;;;21.10;99.90;;;;;;5035996;28;19913;-85
2022/07/21 05:58:19;;;;;;;;;;;21.10;99.90;;;;;;5036521;28;20003;-85
2022/07/21 06:01:07;;;;;;;;;;;21.20;99.90;;;;;;5036130;28;19962;-84
2022/07/21 06:03:30;;;;;;;;;;;21.40;99.90;;;;;;5038528;28;19947;-84
2022/07/21 06:05:56;;;;;;;;;;;21.60;99.90;;;;;;5035557;28;19956;-85
2022/07/21 06:08:21;;;;;;;;;;;22.00;99.90;;;;;;5036234;28;19913;-85
2022/07/21 06:10:46;;;;;;;;;;;22.40;99.90;;;;;;5037269;28;19909;-85
2022/07/21 06:13:12;;;;;;;;;;;23.30;65.10;;;;;;5036186;28;20806;-85
2022/07/21 06:15:37;;;;;;;;;;;24.40;1.00;;;;;;5035089;28;19912;-86
2022/07/21 06:18:03;;;;;;;;;;;24.80;1.00;;;;;;5036402;28;20003;-85
2022/07/21 06:20:28;;;;;;;;;;;24.60;1.00;;;;;;5037238;28;19962;-85
2022/07/21 06:22:54;;;;;;;;;;;24.60;1.00;;;;;;5036446;28;19915;-84
2022/07/21 06:25:20;;;;;;;;;;;24.80;1.00;;;;;;5036781;28;19938;-86
2022/07/21 06:27:46;;;;;;;;;;;25.70;1.00;;;;;;5035253;28;19970;-86
2022/07/21 06:30:11;;;;;;;;;;;26.60;99.90;;;;;;5034764;28;19912;-86
2022/07/21 06:32:37;;;;;;;;;;;27.20;99.90;;;;;;5035548;28;19905;-86
2022/07/21 06:35:03;;;;;;;;;;;27.80;1.00;;;;;;5035970;28;20444;-84
2022/07/21 06:37:28;;;;;;;;;;;28.40;99.90;;;;;;5036695;28;19908;-86
2022/07/21 06:39:54;;;;;;;;;;;28.60;1.00;;;;;;5036469;28;20306;-86
2022/07/21 06:42:19;;;;;;;;;;;28.90;1.00;;;;;;5036089;28;20286;-86
2022/07/21 06:44:46;;;;;;;;;;;29.30;99.90;;;;;;5035399;28;19952;-84
2022/07/21 06:47:11;;;;;;;;;;;29.60;1.00;;;;;;5035510;28;20359;-83
2022/07/21 06:49:37;;;;;;;;;;;29.70;1.00;;;;;;5033462;28;19991;-85
2022/07/21 06:52:02;;;;;;;;;;;30.40;99.90;;;;;;5026504;28;20390;-87
2022/07/21 06:54:28;;;;;;;;;;;30.00;1.00;;;;;;5038851;28;20298;-87
2022/07/21 06:56:53;;;;;;;;;;;29.10;99.90;;;;;;5028878;28;19913;-86
2022/07/21 06:59:19;;;;;;;;;;;28.40;99.90;;;;;;5030427;28;19996;-86
2022/07/21 07:01:44;;;;;;;;;;;27.50;99.90;;;;;;5026840;28;19913;-84
2022/07/21 07:04:10;;;;;;;;;;;27.00;83.10;;;;;;5028073;28;19920;-89
2022/07/21 07:06:35;;;;;;;;;;;26.30;99.90;;;;;;5023395;28;20365;-86
2022/07/21 07:09:01;;;;;;;;;;;26.30;99.90;;;;;;5027815;28;19909;-87
2022/07/21 07:11:26;;;;;;;;;;;26.90;99.90;;;;;;5028174;28;20394;-87
2022/07/21 07:13:52;;;;;;;;;;;27.30;1.00;;;;;;5028219;28;20481;-86
2022/07/21 07:16:17;;;;;;;;;;;27.00;1.00;;;;;;5030954;28;20342;-86
2022/07/21 07:18:43;;;;;;;;;;;26.60;1.00;;;;;;5025071;28;19909;-85
2022/07/21 07:21:08;;;;;;;;;;;25.90;1.00;;;;;;5030083;28;19913;-86
2022/07/21 07:23:34;;;;;;;;;;;25.40;99.90;;;;;;5029790;28;19997;-85
2022/07/21 07:25:59;;;;;;;;;;;25.10;1.00;;;;;;5023543;28;19905;-86
2022/07/21 07:28:25;;;;;;;;;;;25.20;1.00;;;;;;5029083;28;19952;-88
2022/07/21 07:30:50;;;;;;;;;;;25.50;1.00;;;;;;5030857;28;19995;-88
2022/07/21 07:33:16;;;;;;;;;;;25.70;1.00;;;;;;5036307;28;19909;-87
2022/07/21 07:35:41;;;;;;;;;;;25.90;14.40;;;;;;5038620;28;20064;-88
2022/07/21 07:38:07;;;;;;;;;;;25.60;99.90;;;;;;5032845;28;19980;-87
2022/07/21 07:40:32;;;;;;;;;;;25.30;1.00;;;;;;5035112;28;19916;-86
2022/07/21 07:42:58;;;;;;;;;;;25.00;1.00;;;;;;5036872;28;20275;-87
2022/07/21 07:45:23;;;;;;;;;;;24.80;99.90;;;;;;5033381;28;19909;-87
2022/07/21 07:47:49;;;;;;;;;;;24.80;1.00;;;;;;5036830;28;19913;-88
2022/07/21 07:50:14;;;;;;;;;;;25.10;5.80;;;;;;5036017;28;19967;-88
2022/07/21 07:52:40;;;;;;;;;;;25.10;1.00;;;;;;5035929;28;20281;-86
2022/07/21 07:55:10;;;;;;;;;;;25.10;1.00;;;;;;5031096;28;19913;-87
2022/07/21 07:57:35;;;;;;;;;;;25.10;1.00;;;;;;5031917;28;19909;-88
2022/07/21 08:00:03;;;;;;;;;;;25.30;99.90;;;;;;5030812;28;20024;-87
2022/07/21 08:02:29;;;;;;;;;;;25.50;1.00;;;;;;5033668;28;19913;-87
2022/07/21 08:04:54;;;;;;;;;;;25.70;1.00;;;;;;5034203;28;19909;-86
2022/07/21 08:07:20;;;;;;;;;;;25.90;1.00;;;;;;5035388;28;19999;-87
2022/07/21 08:09:45;;;;;;;;;;;25.90;99.90;;;;;;5034682;28;19912;-87
2022/07/21 08:12:11;;;;;;;;;;;25.80;99.90;;;;;;5040149;28;20015;-88
